Time;durP1;ratioP1;P1;durP2;ratioP2;P2;SDS_P1;SDS_P2;PMS_P1;PMS_P2;Temp;Humidity;BMP_temperature;BMP_pressure;BME280_temperature;BME280_humidity;BME280_pressure;Samples;Min_cycle;Max_cycle;Signal;HPM_P1;HPM_P2
2020/12/15 00:00:39;;;;;;;15.60;14.10;;;;;;;5.55;67.65;97626.16;8368337;28;20298;-77
2020/12/15 00:04:42;;;;;;;14.70;13.20;;;;;;;5.89;66.19;97618.25;8367810;28;20619;-79
2020/12/15 00:08:44;;;;;;;17.47;15.50;;;;;;;5.83;66.31;97614.16;8370400;28;20223;-79
2020/12/15 00:12:46;;;;;;;17.43;15.63;;;;;;;5.61;66.90;97611.38;8368334;28;20207;-79
2020/12/15 00:16:48;;;;;;;17.63;15.87;;;;;;;5.53;67.33;97613.34;8368053;28;20213;-78
2020/12/15 00:20:50;;;;;;;19.67;17.57;;;;;;;5.45;68.06;97617.88;8367647;28;20634;-78
2020/12/15 00:24:52;;;;;;;19.27;17.17;;;;;;;5.60;67.25;97617.44;8367842;28;20207;-79
2020/12/15 00:28:54;;;;;;;20.57;17.40;;;;;;;5.42;68.15;97618.78;8367326;28;20230;-78
2020/12/15 00:32:57;;;;;;;21.37;17.53;;;;;;;5.65;66.91;97607.88;8368702;28;20200;-78
2020/12/15 00:36:59;;;;;;;18.83;16.93;;;;;;;5.49;67.68;97589.47;8367928;28;20207;-78
2020/12/15 00:41:00;;;;;;;21.07;18.43;;;;;;;5.40;68.04;97583.78;8366201;28;20204;-78
2020/12/15 00:45:04;;;;;;;19.27;16.80;;;;;;;5.59;67.57;97584.06;8367044;28;20239;-78
2020/12/15 00:49:06;;;;;;;19.17;17.23;;;;;;;5.42;67.88;97576.88;8366885;28;20266;-78
2020/12/15 00:53:09;;;;;;;21.57;19.33;;;;;;;5.35;67.98;97578.78;8366128;28;20231;-78
2020/12/15 00:57:10;;;;;;;21.70;19.50;;;;;;;5.45;67.29;97597.34;8367460;28;20211;-78
2020/12/15 01:01:12;;;;;;;21.37;19.17;;;;;;;5.49;68.07;97591.22;8366831;28;20683;-78
2020/12/15 01:05:15;;;;;;;21.70;19.40;;;;;;;5.41;67.95;97595.75;8366426;28;20357;-78
2020/12/15 01:09:17;;;;;;;21.77;19.57;;;;;;;5.61;67.49;97601.09;8365770;28;20232;-78
2020/12/15 01:13:19;;;;;;;22.37;20.10;;;;;;;5.58;67.16;97603.78;8367007;28;20210;-78
2020/12/15 01:17:21;;;;;;;23.10;20.60;;;;;;;5.69;67.16;97608.59;8367068;28;20208;-77
2020/12/15 01:21:27;;;;;;;21.30;19.17;;;;;;;5.61;67.36;97603.69;8365911;28;20273;-78
2020/12/15 01:25:28;;;;;;;22.10;19.97;;;;;;;5.68;67.12;97606.91;8365314;28;20298;-78
2020/12/15 01:29:30;;;;;;;25.97;23.23;;;;;;;4.88;70.41;97602.34;8366892;28;20219;-78
2020/12/15 01:33:32;;;;;;;22.90;20.63;;;;;;;5.41;68.08;97591.44;8365760;28;20562;-78
2020/12/15 01:37:35;;;;;;;25.43;22.83;;;;;;;5.52;67.70;97597.97;8365695;28;20216;-78
2020/12/15 01:41:37;;;;;;;24.80;22.30;;;;;;;5.68;67.06;97592.34;8364984;28;20210;-78
2020/12/15 01:45:39;;;;;;;25.27;22.77;;;;;;;5.64;67.00;97597.63;8366267;28;20562;-78
2020/12/15 01:49:41;;;;;;;25.50;23.00;;;;;;;5.48;67.70;97594.66;8366626;28;20222;-80
2020/12/15 01:53:45;;;;;;;27.93;25.20;;;;;;;5.54;67.45;97597.06;8372196;28;20195;-79
2020/12/15 01:57:47;;;;;;;27.43;24.80;;;;;;;5.60;67.48;97599.44;8371989;28;20203;-78
2020/12/15 02:01:48;;;;;;;29.43;26.50;;;;;;;5.43;67.84;97593.97;8372240;28;20200;-78
2020/12/15 02:05:50;;;;;;;28.97;26.17;;;;;;;5.34;68.26;97592.50;8371106;28;20219;-78
2020/12/15 02:09:54;;;;;;;26.97;24.33;;;;;;;5.55;67.65;97596.16;8372175;28;20538;-78
2020/12/15 02:13:55;;;;;;;29.03;26.23;;;;;;;5.04;69.49;97592.50;8371619;28;20211;-78
2020/12/15 02:17:57;;;;;;;28.10;25.40;;;;;;;5.60;67.67;97594.31;8371512;28;20250;-78
2020/12/15 02:22:00;;;;;;;31.83;28.73;;;;;;;5.11;69.29;97585.47;8371233;28;20204;-78
2020/12/15 02:26:02;;;;;;;30.73;27.77;;;;;;;4.99;70.07;97596.94;8371148;28;20215;-78
2020/12/15 02:30:06;;;;;;;29.37;26.57;;;;;;;5.48;68.49;97598.09;8371257;28;20557;-77
2020/12/15 02:34:07;;;;;;;27.90;25.30;;;;;;;5.77;67.21;97606.66;8370935;28;20580;-79
2020/12/15 02:38:10;;;;;;;29.23;26.53;;;;;;;5.68;67.15;97600.03;8370928;28;20215;-78
2020/12/15 02:42:12;;;;;;;31.03;27.97;;;;;;;5.56;67.81;97582.44;8370785;28;20196;-78
2020/12/15 02:46:14;;;;;;;31.10;27.93;;;;;;;5.45;68.73;97584.50;8370542;28;20255;-77
2020/12/15 02:50:21;;;;;;;30.47;27.53;;;;;;;5.44;68.52;97585.38;8370729;28;20235;-77
2020/12/15 02:54:24;;;;;;;30.90;27.77;;;;;;;5.48;68.44;97580.13;8370598;28;20614;-77
2020/12/15 02:58:25;;;;;;;30.80;27.80;;;;;;;5.51;68.60;97594.56;8370399;28;20208;-77
2020/12/15 03:02:27;;;;;;;31.50;28.27;;;;;;;5.53;68.16;97604.81;8370093;28;20208;-77
2020/12/15 03:06:29;;;;;;;31.17;28.17;;;;;;;5.44;68.41;97603.34;8369976;28;20694;-78
2020/12/15 03:10:34;;;;;;;31.13;28.07;;;;;;;5.54;68.07;97616.75;8370174;28;20309;-77
2020/12/15 03:14:36;;;;;;;33.10;29.70;;;;;;;5.48;68.51;97620.34;8369381;28;20210;-77
2020/12/15 03:18:38;;;;;;;31.17;28.17;;;;;;;5.49;68.35;97610.03;8369688;28;20230;-78
2020/12/15 03:22:40;;;;;;;31.77;28.77;;;;;;;5.53;68.26;97620.22;8370893;28;20200;-78
2020/12/15 03:26:43;;;;;;;29.23;26.17;;;;;;;5.58;68.12;97606.34;8369016;28;20232;-78
2020/12/15 03:30:44;;;;;;;29.87;26.80;;;;;;;5.47;68.96;97622.06;8370822;28;20219;-79
2020/12/15 03:34:46;;;;;;;31.97;28.80;;;;;;;5.33;68.92;97619.09;8372013;28;20639;-79
2020/12/15 03:38:48;;;;;;;32.90;29.43;;;;;;;5.35;68.86;97606.19;8369653;28;20239;-79
2020/12/15 03:42:50;;;;;;;31.33;28.33;;;;;;;5.07;69.51;97612.94;8368892;28;20207;-78
2020/12/15 03:46:52;;;;;;;33.20;30.00;;;;;;;5.18;69.68;97604.97;8368714;28;20230;-78
2020/12/15 03:50:54;;;;;;;32.47;29.13;;;;;;;5.09;69.27;97603.47;8367444;28;20242;-78
2020/12/15 03:54:56;;;;;;;31.73;28.57;;;;;;;5.39;69.01;97600.09;8368402;28;20635;-78
2020/12/15 03:58:58;;;;;;;29.60;26.47;;;;;;;5.38;69.23;97611.25;8369072;28;20573;-78
2020/12/15 04:03:00;;;;;;;29.30;26.40;;;;;;;5.39;68.39;97620.63;8367607;28;20200;-79
2020/12/15 04:07:02;;;;;;;29.97;27.07;;;;;;;5.40;68.28;97602.59;8367381;28;20231;-79
2020/12/15 04:11:03;;;;;;;30.07;27.07;;;;;;;5.03;69.49;97592.56;8368109;28;20212;-78
2020/12/15 04:15:06;;;;;;;29.37;26.17;;;;;;;5.15;69.41;97588.78;8367264;28;20199;-78
2020/12/15 04:19:08;;;;;;;28.03;25.30;;;;;;;5.29;69.30;97584.94;8367698;28;20230;-78
2020/12/15 04:23:09;;;;;;;29.10;26.10;;;;;;;5.40;68.54;97594.88;8367731;28;20274;-79
2020/12/15 04:27:11;;;;;;;29.63;26.53;;;;;;;5.51;68.30;97602.28;8367660;28;20655;-79
2020/12/15 04:31:14;;;;;;;28.73;25.73;;;;;;;5.60;68.21;97611.47;8367984;28;20239;-79
2020/12/15 04:35:16;;;;;;;29.37;26.47;;;;;;;5.22;69.10;97606.53;8367688;28;20303;-79
2020/12/15 04:39:18;;;;;;;29.80;26.80;;;;;;;5.44;68.74;97601.59;8368257;28;20218;-78
2020/12/15 04:43:21;;;;;;;31.70;26.90;;;;;;;5.41;68.95;97594.00;8370822;28;20211;-78
2020/12/15 04:47:32;;;;;;;31.03;28.00;;;;;;;5.29;69.31;97591.78;8368504;28;20232;-78
2020/12/15 04:51:46;;;;;;;31.57;28.30;;;;;;;5.37;69.38;97592.44;8366258;28;20231;-78
2020/12/15 04:55:50;;;;;;;30.47;27.37;;;;;;;5.31;69.39;97584.03;8367548;28;20219;-79
2020/12/15 04:59:53;;;;;;;30.00;27.10;;;;;;;5.51;69.13;97604.84;8366489;28;20204;-78
2020/12/15 05:03:57;;;;;;;31.27;28.07;;;;;;;5.25;69.94;97574.81;8371141;28;20224;-79
2020/12/15 05:08:03;;;;;;;32.93;29.67;;;;;;;5.09;71.13;97576.97;8366976;28;20337;-79
2020/12/15 05:12:05;;;;;;;31.60;28.40;;;;;;;5.19;70.53;97585.25;8366237;28;20207;-78
2020/12/15 05:16:07;;;;;;;33.00;29.77;;;;;;;4.84;71.56;97587.94;8365606;28;20200;-78
2020/12/15 05:20:10;;;;;;;31.03;27.93;;;;;;;5.38;70.22;97622.34;8366645;28;20207;-79
2020/12/15 05:24:12;;;;;;;33.43;29.83;;;;;;;5.39;69.54;97615.50;8366056;28;20644;-78
2020/12/15 05:28:15;;;;;;;33.90;30.50;;;;;;;5.35;70.09;97621.59;8365109;28;20220;-79
2020/12/15 05:32:17;;;;;;;32.43;29.17;;;;;;;5.57;69.27;97638.06;8366240;28;20211;-79
2020/12/15 05:36:20;;;;;;;32.03;28.83;;;;;;;5.59;68.91;97620.03;8366022;28;20637;-78
2020/12/15 05:40:22;;;;;;;33.57;30.00;;;;;;;5.39;69.99;97618.06;8367227;28;20312;-78
2020/12/15 05:44:27;;;;;;;31.73;28.33;;;;;;;5.66;69.38;97614.66;8366925;28;20650;-79
2020/12/15 05:48:29;;;;;;;31.83;28.63;;;;;;;5.69;68.43;97626.56;8370385;28;20230;-78
2020/12/15 05:52:32;;;;;;;33.13;29.80;;;;;;;5.38;69.97;97595.81;8368996;28;20231;-79
2020/12/15 05:56:35;;;;;;;30.63;27.63;;;;;;;5.84;68.50;97600.41;8366501;28;20226;-79
2020/12/15 06:00:36;;;;;;;31.73;28.47;;;;;;;5.71;68.53;97593.13;8366551;28;20188;-78
2020/12/15 06:04:39;;;;;;;33.00;29.60;;;;;;;5.69;69.19;97611.16;8364829;28;20230;-78
2020/12/15 06:08:43;;;;;;;31.63;28.47;;;;;;;5.22;70.58;97593.72;8364159;28;20227;-78
2020/12/15 06:12:44;;;;;;;32.67;29.37;;;;;;;5.56;69.50;97538.78;8365364;28;20196;-77
2020/12/15 06:16:46;;;;;;;32.03;28.67;;;;;;;5.20;70.74;97536.44;8365116;28;20563;-78
2020/12/15 06:21:08;;;;;;;34.13;30.43;;;;;;;5.24;70.93;97504.66;8363749;28;20189;-77
2020/12/15 06:25:11;;;;;;;33.37;29.90;;;;;;;4.75;72.51;97485.56;8331567;28;20188;-77
2020/12/15 06:29:12;;;;;;;35.00;30.93;;;;;;;4.67;73.20;97470.38;8344230;28;20234;-77
2020/12/15 06:33:15;;;;;;;32.87;29.37;;;;;;;5.26;71.54;97502.88;8363793;28;20235;-77
2020/12/15 06:37:17;;;;;;;33.07;29.27;;;;;;;4.81;72.19;97500.75;8364951;28;20204;-79
2020/12/15 06:41:21;;;;;;;30.57;27.17;;;;;;;5.23;71.17;97499.56;8369764;28;20212;-77
2020/12/15 06:45:23;;;;;;;29.80;26.57;;;;;;;5.57;69.75;97524.19;8370144;28;20204;-77
2020/12/15 06:49:33;;;;;;;29.13;26.03;;;;;;;5.81;69.08;97576.56;8370409;28;20250;-77
2020/12/15 06:53:35;;;;;;;29.97;26.67;;;;;;;5.93;68.83;97595.88;8370810;28;20539;-77
2020/12/15 06:57:39;;;;;;;33.07;28.63;;;;;;;5.95;68.65;97633.53;8370583;28;20231;-77
2020/12/15 07:01:41;;;;;;;31.23;28.00;;;;;;;5.98;68.24;97630.88;8370145;28;20762;-78
2020/12/15 07:05:43;;;;;;;32.63;28.90;;;;;;;6.14;67.80;97648.38;8369337;28;20219;-78
2020/12/15 07:09:45;;;;;;;33.50;29.47;;;;;;;6.11;68.36;97657.03;8369162;28;20223;-77
2020/12/15 07:13:58;;;;;;;33.00;29.50;;;;;;;6.20;67.73;97661.88;8369676;28;20223;-77
2020/12/15 07:18:02;;;;;;;32.37;28.90;;;;;;;6.25;67.72;97646.31;8369964;28;20184;-77
2020/12/15 07:22:04;;;;;;;34.10;30.50;;;;;;;6.05;68.08;97645.22;8369509;28;20206;-77
2020/12/15 07:26:11;;;;;;;33.07;29.60;;;;;;;6.21;67.83;97655.84;8370709;28;20663;-78
2020/12/15 07:30:15;;;;;;;32.13;28.83;;;;;;;6.35;67.02;97644.28;8368811;28;20208;-78
2020/12/15 07:34:17;;;;;;;32.73;29.33;;;;;;;6.16;67.02;97634.56;8368952;28;20249;-78
2020/12/15 07:38:19;;;;;;;33.43;30.03;;;;;;;6.31;67.16;97638.38;8368403;28;20212;-77
2020/12/15 07:42:21;;;;;;;34.93;31.20;;;;;;;6.18;67.51;97631.97;8367947;28;20196;-77
2020/12/15 07:46:24;;;;;;;33.07;29.57;;;;;;;6.10;68.13;97637.34;8367875;28;20204;-78
2020/12/15 07:50:26;;;;;;;34.63;30.87;;;;;;;5.74;69.67;97647.84;8366300;28;20705;-78
2020/12/15 07:54:28;;;;;;;32.83;29.33;;;;;;;6.18;67.94;97639.69;8367741;28;20207;-77
2020/12/15 07:58:30;;;;;;;34.73;31.03;;;;;;;5.74;69.03;97640.13;8367881;28;20211;-77
2020/12/15 08:02:33;;;;;;;36.07;32.17;;;;;;;5.56;69.86;97630.38;8368835;28;20223;-77
2020/12/15 08:06:37;;;;;;;35.23;31.47;;;;;;;5.70;69.48;97630.84;8369516;28;20707;-77
2020/12/15 08:10:39;;;;;;;37.00;32.97;;;;;;;5.52;69.72;97642.50;8368003;28;20214;-77
2020/12/15 08:14:45;;;;;;;34.63;30.93;;;;;;;5.51;70.08;97643.38;8368054;28;20553;-78
2020/12/15 08:18:49;;;;;;;39.77;33.77;;;;;;;5.39;70.07;97639.44;8369203;28;20622;-77
2020/12/15 08:23:03;;;;;;;37.30;32.83;;;;;;;5.37;70.72;97642.94;8367588;28;20211;-78
2020/12/15 08:27:11;;;;;;;37.13;32.80;;;;;;;5.39;70.43;97636.88;8367465;28;20311;-77
2020/12/15 08:31:13;;;;;;;38.40;32.77;;;;;;;5.29;71.25;97650.84;8366992;28;20230;-78
2020/12/15 08:35:23;;;;;;;37.20;33.20;;;;;;;5.42;70.58;97662.47;8367756;28;20257;-77
2020/12/15 08:39:26;;;;;;;35.00;31.20;;;;;;;5.70;69.97;97655.69;8368430;28;20196;-78
2020/12/15 08:43:29;;;;;;;37.13;32.47;;;;;;;5.64;70.13;97656.72;8368148;28;20249;-77
2020/12/15 08:47:32;;;;;;;37.20;32.57;;;;;;;5.50;70.93;97667.38;8366842;28;20223;-78
2020/12/15 08:51:39;;;;;;;41.73;32.97;;;;;;;5.42;71.29;97647.03;8366337;28;20232;-77
2020/12/15 08:55:42;;;;;;;36.00;30.87;;;;;;;5.62;71.17;97653.34;8366082;28;20535;-77
2020/12/15 08:59:44;;;;;;;35.47;30.77;;;;;;;5.76;70.58;97653.75;8363243;28;20591;-77
2020/12/15 09:03:47;;;;;;;36.17;30.80;;;;;;;5.73;70.84;97648.75;8363783;28;20235;-77
2020/12/15 09:07:51;;;;;;;37.67;32.57;;;;;;;5.74;70.76;97639.28;8367827;28;20610;-77
2020/12/15 09:11:54;;;;;;;38.47;33.17;;;;;;;5.36;71.63;97649.78;8366302;28;20210;-78
2020/12/15 09:15:57;;;;;;;35.70;30.93;;;;;;;5.67;71.44;97641.19;8367129;28;20571;-77
2020/12/15 09:19:59;;;;;;;36.23;29.37;;;;;;;5.77;70.86;97640.03;8367089;28;20208;-77
2020/12/15 09:24:02;;;;;;;33.63;29.70;;;;;;;5.92;69.81;97661.00;8365824;28;20301;-77
2020/12/15 09:28:04;;;;;;;33.47;29.50;;;;;;;5.80;70.33;97670.78;8366859;28;20227;-77
2020/12/15 09:32:06;;;;;;;30.90;27.40;;;;;;;6.06;69.86;97682.03;8367665;28;20224;-78
2020/12/15 09:36:08;;;;;;;31.70;28.03;;;;;;;6.17;69.09;97689.41;8369086;28;20659;-77
2020/12/15 09:40:11;;;;;;;33.70;30.00;;;;;;;6.00;69.96;97680.50;8368312;28;20238;-77
2020/12/15 09:44:13;;;;;;;32.07;27.77;;;;;;;6.29;69.41;97688.22;8367327;28;20243;-77
2020/12/15 09:48:14;;;;;;;33.93;29.07;;;;;;;6.52;68.99;97690.03;8366550;28;20224;-76
2020/12/15 09:52:16;;;;;;;28.90;25.53;;;;;;;6.64;78.06;97680.19;8366047;28;20243;-77
2020/12/15 09:56:19;;;;;;;32.43;28.83;;;;;;;6.89;68.38;97681.91;8367296;28;20674;-78
2020/12/15 10:00:21;;;;;;;30.83;27.53;;;;;;;7.74;65.00;97684.91;8365627;28;20200;-77
2020/12/15 10:04:22;;;;;;;28.87;25.87;;;;;;;7.30;65.77;97686.53;8368175;28;20219;-77
2020/12/15 10:08:24;;;;;;;30.20;26.80;;;;;;;7.28;66.03;97702.03;8358934;28;20561;-77
2020/12/15 10:12:27;;;;;;;29.60;25.90;;;;;;;7.26;65.92;97697.84;8355849;28;20207;-77
2020/12/15 10:16:29;;;;;;;31.23;27.40;;;;;;;7.19;66.04;97695.47;8374744;28;20539;-77
2020/12/15 10:20:30;;;;;;;30.57;27.20;;;;;;;7.30;66.01;97704.56;8373177;28;20199;-77
2020/12/15 10:24:33;;;;;;;29.33;26.20;;;;;;;7.13;66.21;97692.28;8371586;28;20211;-77
2020/12/15 10:28:36;;;;;;;31.73;27.87;;;;;;;7.13;66.15;97684.56;8374496;28;20227;-77
2020/12/15 10:32:38;;;;;;;30.10;26.93;;;;;;;6.95;66.97;97691.16;8374950;28;20636;-77
2020/12/15 10:36:40;;;;;;;29.10;26.10;;;;;;;6.78;67.61;97692.59;8374079;28;20566;-77
2020/12/15 10:40:41;;;;;;;30.03;26.83;;;;;;;6.75;67.51;97686.72;8374694;28;20566;-77
2020/12/15 10:44:44;;;;;;;30.70;26.67;;;;;;;6.77;67.04;97688.31;8374568;28;20214;-77
2020/12/15 10:48:46;;;;;;;29.93;26.77;;;;;;;6.80;67.53;97677.09;8374446;28;20239;-77
2020/12/15 10:52:48;;;;;;;31.13;25.87;;;;;;;6.83;67.29;97693.28;8375227;28;20239;-78
2020/12/15 10:56:49;;;;;;;30.10;26.40;;;;;;;6.75;67.46;97692.69;8373926;28;20215;-78
2020/12/15 11:00:52;;;;;;;28.83;25.70;;;;;;;6.76;67.24;97683.22;8367264;28;20201;-78
2020/12/15 11:04:53;;;;;;;28.83;24.63;;;;;;;6.62;68.33;97701.69;8346677;28;20231;-79
2020/12/15 11:08:55;;;;;;;29.70;25.97;;;;;;;6.62;68.32;97678.53;8374708;28;20231;-79
2020/12/15 11:13:00;;;;;;;30.40;25.00;;;;;;;6.71;68.24;97669.69;8375028;28;20226;-78
2020/12/15 11:17:02;;;;;;;29.47;25.63;;;;;;;6.51;68.73;97676.34;8372759;28;20211;-78
2020/12/15 11:21:04;;;;;;;27.80;24.80;;;;;;;6.65;68.41;97669.00;8372298;28;20713;-78
2020/12/15 11:25:06;;;;;;;33.83;26.13;;;;;;;6.40;69.40;97666.38;8365791;28;20200;-76
2020/12/15 11:29:08;;;;;;;31.43;26.70;;;;;;;6.67;69.15;97663.81;8365453;28;20228;-77
2020/12/15 11:33:10;;;;;;;30.33;26.60;;;;;;;6.74;68.70;97667.84;8373679;28;20246;-77
2020/12/15 11:37:13;;;;;;;28.13;25.20;;;;;;;6.74;68.52;97672.13;8364963;28;20196;-77
2020/12/15 11:41:15;;;;;;;29.90;26.27;;;;;;;6.73;68.55;97671.31;8368886;28;20211;-78
2020/12/15 11:45:16;;;;;;;29.37;25.00;;;;;;;7.08;68.10;97666.69;8353063;28;20635;-77
2020/12/15 11:49:19;;;;;;;28.30;25.20;;;;;;;7.39;66.58;97660.47;8363875;28;20223;-78
2020/12/15 11:53:20;;;;;;;29.23;25.07;;;;;;;7.31;67.16;97657.28;8368835;28;20220;-78
2020/12/15 11:57:22;;;;;;;27.03;23.97;;;;;;;7.15;67.04;97665.56;8368224;28;20214;-78
2020/12/15 12:01:24;;;;;;;27.70;24.17;;;;;;;6.92;67.69;97661.22;8357639;28;20208;-77
2020/12/15 12:05:27;;;;;;;29.90;24.43;;;;;;;6.82;68.04;97667.59;8362962;28;20224;-77
2020/12/15 12:09:29;;;;;;;27.33;24.30;;;;;;;6.84;67.94;97650.38;8369388;28;20246;-78
2020/12/15 12:13:30;;;;;;;28.50;24.47;;;;;;;7.24;66.60;97644.66;8370554;28;20238;-77
2020/12/15 12:17:32;;;;;;;28.63;24.67;;;;;;;7.26;66.70;97646.34;8369951;28;20299;-77
2020/12/15 12:21:35;;;;;;;29.57;24.67;;;;;;;6.95;67.56;97647.41;8369913;28;20203;-78
2020/12/15 12:25:37;;;;;;;27.07;23.53;;;;;;;7.35;67.25;97646.84;8369696;28;20203;-78
2020/12/15 12:29:39;;;;;;;30.73;24.40;;;;;;;7.42;66.70;97650.88;8370465;28;20228;-78
2020/12/15 12:33:41;;;;;;;31.07;24.57;;;;;;;7.13;67.03;97651.91;8370769;28;20750;-78
2020/12/15 12:37:43;;;;;;;28.57;24.57;;;;;;;7.18;67.36;97644.88;8370616;28;20679;-79
2020/12/15 12:41:49;;;;;;;28.10;25.10;;;;;;;7.34;67.08;97642.56;8371464;28;20215;-78
2020/12/15 12:45:51;;;;;;;26.17;23.37;;;;;;;7.29;66.48;97628.19;8368772;28;20620;-79
2020/12/15 12:49:53;;;;;;;29.00;25.13;;;;;;;7.29;66.86;97630.75;8368903;28;20258;-79
2020/12/15 12:53:55;;;;;;;28.30;24.97;;;;;;;7.29;67.28;97638.47;8368411;28;20619;-78
2020/12/15 12:57:57;;;;;;;31.83;24.20;;;;;;;7.20;67.44;97645.66;8336848;28;20212;-78
2020/12/15 13:02:02;;;;;;;27.80;23.87;;;;;;;7.17;67.39;97653.47;8350701;28;20202;-77
2020/12/15 13:06:05;;;;;;;29.53;23.03;;;;;;;7.20;67.79;97637.94;8368763;28;20241;-78
2020/12/15 13:10:08;;;;;;;30.47;24.97;;;;;;;7.31;67.63;97639.25;8367960;28;20227;-78
2020/12/15 13:14:10;;;;;;;27.20;24.03;;;;;;;7.36;67.58;97648.50;8368485;28;20215;-78
2020/12/15 13:18:12;;;;;;;26.60;23.10;;;;;;;7.40;67.90;97646.66;8368345;28;20208;-77
2020/12/15 13:22:14;;;;;;;26.97;23.87;;;;;;;7.51;67.58;97634.22;8368495;28;20222;-78
2020/12/15 13:26:21;;;;;;;33.20;23.70;;;;;;;7.43;67.87;97641.41;8368752;28;20212;-78
2020/12/15 13:30:23;;;;;;;31.20;23.93;;;;;;;7.54;67.29;97631.53;8367777;28;20215;-77
2020/12/15 13:34:25;;;;;;;27.07;23.67;;;;;;;7.25;68.47;97645.47;8365945;28;20195;-77
2020/12/15 13:38:28;;;;;;;31.17;24.87;;;;;;;7.72;67.50;97654.94;8366306;28;20211;-78
2020/12/15 13:42:31;;;;;;;34.83;24.83;;;;;;;7.71;67.39;97671.28;8368223;28;20309;-78
2020/12/15 13:46:33;;;;;;;27.90;24.13;;;;;;;7.54;67.79;97680.50;8367496;28;20192;-78
2020/12/15 13:50:52;;;;;;;28.97;24.30;;;;;;;7.58;67.90;97682.06;8374388;28;20671;-78
2020/12/15 13:54:54;;;;;;;28.43;23.60;;;;;;;7.50;67.97;97678.06;8374472;28;20203;-76
2020/12/15 13:58:56;;;;;;;29.30;24.67;;;;;;;7.54;67.84;97693.38;8372564;28;20214;-78
2020/12/15 14:02:58;;;;;;;31.80;25.57;;;;;;;7.62;67.68;97688.78;8375301;28;20203;-78
2020/12/15 14:07:00;;;;;;;28.50;23.70;;;;;;;7.67;67.69;97682.63;8378057;28;20239;-78
2020/12/15 14:11:02;;;;;;;28.50;24.60;;;;;;;7.52;67.67;97686.59;8376523;28;20219;-78
2020/12/15 14:15:04;;;;;;;28.50;24.00;;;;;;;7.42;68.34;97686.94;8375751;28;20648;-78
2020/12/15 14:19:06;;;;;;;32.00;26.03;;;;;;;7.12;69.07;97694.03;8371795;28;20202;-78
2020/12/15 14:23:08;;;;;;;33.20;25.97;;;;;;;7.19;69.15;97695.47;8359344;28;20192;-77
2020/12/15 14:27:10;;;;;;;44.87;25.57;;;;;;;7.23;69.24;97693.63;8375294;28;20663;-78
2020/12/15 14:31:12;;;;;;;29.53;24.37;;;;;;;7.24;69.10;97703.06;8371694;28;20230;-77
2020/12/15 14:35:14;;;;;;;27.50;24.57;;;;;;;7.16;68.94;97712.75;8375496;28;20220;-78
2020/12/15 14:39:16;;;;;;;26.93;23.73;;;;;;;7.14;68.95;97715.41;8352930;28;20204;-78
2020/12/15 14:43:18;;;;;;;29.23;23.63;;;;;;;7.30;68.68;97712.31;8371685;28;20192;-77
2020/12/15 14:47:20;;;;;;;29.20;24.23;;;;;;;7.26;68.40;97733.91;8375516;28;20206;-78
2020/12/15 14:51:24;;;;;;;26.10;23.23;;;;;;;7.31;68.54;97734.56;8374980;28;20235;-78
2020/12/15 14:55:25;;;;;;;29.53;24.73;;;;;;;7.26;68.67;97739.91;8375208;28;20192;-77
2020/12/15 14:59:27;;;;;;;28.93;25.17;;;;;;;7.09;69.08;97742.22;8368679;28;20577;-78
2020/12/15 15:03:31;;;;;;;26.23;22.97;;;;;;;7.23;69.32;97738.28;8368938;28;20203;-78
2020/12/15 15:07:33;;;;;;;30.80;23.53;;;;;;;7.19;69.15;97754.72;8369769;28;20203;-77
2020/12/15 15:11:45;;;;;;;29.20;24.60;;;;;;;7.07;69.40;97756.88;8357054;28;20254;-78
2020/12/15 15:15:46;;;;;;;25.67;22.47;;;;;;;7.15;69.15;97765.19;8356361;28;20624;-78
2020/12/15 15:19:51;;;;;;;26.80;23.93;;;;;;;6.95;69.79;97765.81;8370574;28;20227;-78
2020/12/15 15:23:54;;;;;;;27.50;24.60;;;;;;;6.91;69.86;97769.41;8360164;28;20203;-78
2020/12/15 15:27:56;;;;;;;26.93;23.77;;;;;;;6.92;69.74;97791.69;8368535;28;20703;-78
2020/12/15 15:31:58;;;;;;;25.77;22.97;;;;;;;6.96;70.07;97783.81;8359800;28;20205;-78
2020/12/15 15:36:00;;;;;;;27.30;24.40;;;;;;;6.89;70.56;97784.88;8367136;28;20200;-78
2020/12/15 15:40:03;;;;;;;26.07;22.77;;;;;;;7.04;69.97;97783.56;8366829;28;20720;-78
2020/12/15 15:44:05;;;;;;;29.13;24.37;;;;;;;6.80;70.95;97787.78;8368335;28;20199;-79
2020/12/15 15:48:07;;;;;;;29.37;24.87;;;;;;;6.85;70.62;97793.59;8368703;28;20227;-78
2020/12/15 15:52:09;;;;;;;26.63;23.73;;;;;;;6.98;70.46;97792.31;8369722;28;20228;-78
2020/12/15 15:56:11;;;;;;;26.47;23.63;;;;;;;7.03;70.69;97798.16;8357672;28;20542;-78
2020/12/15 16:00:13;;;;;;;27.87;24.10;;;;;;;7.14;69.63;97804.69;8367947;28;20215;-78
2020/12/15 16:04:14;;;;;;;31.93;26.17;;;;;;;6.99;70.10;97796.59;8368274;28;20231;-78
2020/12/15 16:08:17;;;;;;;28.97;25.83;;;;;;;6.90;71.17;97811.50;8349767;28;20224;-78
2020/12/15 16:12:19;;;;;;;29.67;26.40;;;;;;;6.88;71.10;97811.53;8334133;28;20536;-78
2020/12/15 16:16:21;;;;;;;30.50;26.03;;;;;;;6.94;71.20;97813.06;8336103;28;20236;-78
2020/12/15 16:20:23;;;;;;;34.60;28.10;;;;;;;6.90;71.31;97814.06;8367858;28;20640;-79
2020/12/15 16:24:25;;;;;;;32.73;28.20;;;;;;;6.85;71.09;97817.63;8368313;28;20235;-78
2020/12/15 16:28:27;;;;;;;36.50;30.00;;;;;;;7.06;70.70;97815.25;8367642;28;20232;-78
2020/12/15 16:32:30;;;;;;;31.33;26.90;;;;;;;7.09;70.26;97829.78;8367392;28;20290;-79
2020/12/15 16:36:32;;;;;;;30.43;27.20;;;;;;;6.98;70.95;97817.22;8367977;28;20643;-78
2020/12/15 16:40:34;;;;;;;31.17;27.80;;;;;;;7.03;70.57;97829.06;8367663;28;20207;-78
2020/12/15 16:44:36;;;;;;;37.47;28.73;;;;;;;7.04;70.47;97830.75;8367016;28;20231;-78
2020/12/15 16:48:38;;;;;;;33.23;29.23;;;;;;;7.05;70.83;97831.59;8366142;28;20303;-78
2020/12/15 16:52:40;;;;;;;36.43;28.63;;;;;;;7.07;70.42;97837.53;8368498;28;20273;-78
2020/12/15 16:56:47;;;;;;;37.33;30.60;;;;;;;6.82;70.93;97851.19;8383008;28;20218;-78
2020/12/15 17:00:49;;;;;;;33.80;29.33;;;;;;;7.01;70.77;97842.88;8401205;28;20192;-78
2020/12/15 17:04:51;;;;;;;34.77;28.37;;;;;;;7.01;71.22;97838.56;8382799;28;20235;-78
2020/12/15 17:08:53;;;;;;;36.50;29.53;;;;;;;7.11;69.93;97848.59;8367649;28;20566;-78
2020/12/15 17:12:55;;;;;;;32.00;28.20;;;;;;;7.07;70.45;97849.56;8366493;28;20223;-78
2020/12/15 17:16:57;;;;;;;34.47;30.10;;;;;;;7.04;70.43;97850.50;8365942;28;20222;-78
2020/12/15 17:20:59;;;;;;;32.57;29.10;;;;;;;7.12;70.39;97848.53;8365491;28;20663;-77
2020/12/15 17:25:01;;;;;;;32.23;28.83;;;;;;;6.96;70.76;97853.31;8366837;28;20227;-78
2020/12/15 17:29:03;;;;;;;35.97;29.90;;;;;;;7.04;71.09;97865.94;8365791;28;20313;-77
2020/12/15 17:33:05;;;;;;;32.83;29.10;;;;;;;7.00;71.08;97856.63;8366278;28;20192;-77
2020/12/15 17:37:07;;;;;;;34.00;30.37;;;;;;;6.76;71.89;97863.38;8365885;28;20196;-77
2020/12/15 17:41:09;;;;;;;34.70;30.90;;;;;;;6.71;72.00;97865.28;8365173;28;20231;-77
2020/12/15 17:45:11;;;;;;;34.23;30.53;;;;;;;6.64;72.36;97860.31;8355662;28;20218;-77
2020/12/15 17:49:13;;;;;;;36.03;32.17;;;;;;;6.78;71.81;97867.63;8365111;28;20227;-78
2020/12/15 17:53:15;;;;;;;34.63;31.00;;;;;;;6.93;71.46;97866.31;8371620;28;20235;-79
2020/12/15 17:57:17;;;;;;;36.80;32.33;;;;;;;6.71;72.54;97888.44;8365219;28;20306;-78
2020/12/15 18:01:19;;;;;;;35.10;31.40;;;;;;;6.94;71.29;97878.28;8369238;28;20212;-78
2020/12/15 18:05:21;;;;;;;36.80;32.80;;;;;;;6.61;72.07;97883.56;8366523;28;20224;-78
2020/12/15 18:09:23;;;;;;;37.70;33.60;;;;;;;6.51;72.53;97895.03;8365489;28;20223;-78
2020/12/15 18:13:25;;;;;;;38.53;33.47;;;;;;;6.46;72.51;97897.72;8366769;28;20199;-77
2020/12/15 18:17:32;;;;;;;37.67;33.67;;;;;;;6.73;72.15;97899.53;8365897;28;20192;-78
2020/12/15 18:21:39;;;;;;;38.77;33.87;;;;;;;6.66;71.46;97911.72;8366179;28;20208;-78
2020/12/15 18:25:47;;;;;;;39.90;33.23;;;;;;;6.65;71.58;97910.06;8365807;28;20196;-78
2020/12/15 18:29:55;;;;;;;38.83;33.53;;;;;;;6.74;71.90;97914.94;8365325;28;20235;-78
2020/12/15 18:34:02;;;;;;;43.27;35.73;;;;;;;6.82;71.18;97918.09;8367572;28;20251;-78
2020/12/15 18:38:09;;;;;;;40.37;35.50;;;;;;;6.60;71.93;97917.06;8371658;28;20215;-77
2020/12/15 18:42:16;;;;;;;41.37;36.43;;;;;;;6.51;72.39;97920.75;8370689;28;20180;-78
2020/12/15 18:46:25;;;;;;;40.33;35.63;;;;;;;6.69;72.51;97929.66;8365526;28;20238;-78